sensor_id;sensor_type;location;lat;lon;timestamp;P1;durP1;ratioP1;P2;durP2;ratioP2
20861;SDS011;10591;52.532;13.348;2023-07-31T00:01:33;5.15;;;3.20;;
20861;SDS011;10591;52.532;13.348;2023-07-31T00:04:04;4.37;;;3.00;;
20861;SDS011;10591;52.532;13.348;2023-07-31T00:06:39;3.47;;;2.90;;
20861;SDS011;10591;52.532;13.348;2023-07-31T00:09:11;3.67;;;3.25;;
20861;SDS011;10591;52.532;13.348;2023-07-31T00:11:42;4.08;;;3.00;;
20861;SDS011;10591;52.532;13.348;2023-07-31T00:14:12;4.70;;;3.10;;
20861;SDS011;10591;52.532;13.348;2023-07-31T00:16:43;6.15;;;3.20;;
20861;SDS011;10591;52.532;13.348;2023-07-31T00:19:13;4.62;;;3.15;;
20861;SDS011;10591;52.532;13.348;2023-07-31T00:21:45;4.47;;;3.00;;
20861;SDS011;10591;52.532;13.348;2023-07-31T00:24:15;5.65;;;3.70;;
20861;SDS011;10591;52.532;13.348;2023-07-31T00:26:46;5.87;;;3.40;;
20861;SDS011;10591;52.532;13.348;2023-07-31T00:29:17;4.53;;;2.98;;
20861;SDS011;10591;52.532;13.348;2023-07-31T00:31:48;6.62;;;3.10;;
20861;SDS011;10591;52.532;13.348;2023-07-31T00:34:19;5.20;;;3.00;;
20861;SDS011;10591;52.532;13.348;2023-07-31T00:36:49;4.90;;;2.92;;
20861;SDS011;10591;52.532;13.348;2023-07-31T00:39:20;4.92;;;3.20;;
20861;SDS011;10591;52.532;13.348;2023-07-31T00:41:50;3.98;;;2.87;;
20861;SDS011;10591;52.532;13.348;2023-07-31T00:44:21;6.72;;;3.95;;
20861;SDS011;10591;52.532;13.348;2023-07-31T00:46:52;6.47;;;3.15;;
20861;SDS011;10591;52.532;13.348;2023-07-31T00:49:23;3.92;;;3.35;;
20861;SDS011;10591;52.532;13.348;2023-07-31T00:51:54;3.10;;;2.80;;
20861;SDS011;10591;52.532;13.348;2023-07-31T00:54:26;3.35;;;2.95;;
20861;SDS011;10591;52.532;13.348;2023-07-31T00:56:56;4.45;;;3.10;;
20861;SDS011;10591;52.532;13.348;2023-07-31T00:59:28;3.92;;;3.10;;
20861;SDS011;10591;52.532;13.348;2023-07-31T01:01:58;5.42;;;4.28;;
20861;SDS011;10591;52.532;13.348;2023-07-31T01:04:31;6.87;;;4.75;;
20861;SDS011;10591;52.532;13.348;2023-07-31T01:12:16;6.90;;;4.20;;
20861;SDS011;10591;52.532;13.348;2023-07-31T01:15:02;7.85;;;4.90;;
20861;SDS011;10591;52.532;13.348;2023-07-31T01:17:39;5.87;;;4.00;;
20861;SDS011;10591;52.532;13.348;2023-07-31T01:20:23;6.75;;;4.42;;
20861;SDS011;10591;52.532;13.348;2023-07-31T01:23:14;6.97;;;4.25;;
20861;SDS011;10591;52.532;13.348;2023-07-31T01:28:51;5.53;;;4.17;;
20861;SDS011;10591;52.532;13.348;2023-07-31T01:31:23;6.30;;;4.50;;
20861;SDS011;10591;52.532;13.348;2023-07-31T01:33:57;6.65;;;4.67;;
20861;SDS011;10591;52.532;13.348;2023-07-31T01:36:31;6.97;;;4.33;;
20861;SDS011;10591;52.532;13.348;2023-07-31T01:39:02;5.97;;;4.45;;
20861;SDS011;10591;52.532;13.348;2023-07-31T01:41:33;5.42;;;4.60;;
20861;SDS011;10591;52.532;13.348;2023-07-31T01:44:04;6.05;;;4.45;;
20861;SDS011;10591;52.532;13.348;2023-07-31T01:46:35;5.33;;;4.00;;
20861;SDS011;10591;52.532;13.348;2023-07-31T01:49:06;7.25;;;4.50;;
20861;SDS011;10591;52.532;13.348;2023-07-31T01:51:37;5.22;;;4.05;;
20861;SDS011;10591;52.532;13.348;2023-07-31T01:54:08;7.53;;;4.58;;
20861;SDS011;10591;52.532;13.348;2023-07-31T01:56:38;7.10;;;4.67;;
20861;SDS011;10591;52.532;13.348;2023-07-31T01:59:10;5.62;;;4.10;;
20861;SDS011;10591;52.532;13.348;2023-07-31T02:01:40;5.28;;;4.20;;
20861;SDS011;10591;52.532;13.348;2023-07-31T02:04:11;6.60;;;4.00;;
20861;SDS011;10591;52.532;13.348;2023-07-31T02:06:41;5.85;;;4.20;;
20861;SDS011;10591;52.532;13.348;2023-07-31T02:09:13;6.30;;;4.40;;
20861;SDS011;10591;52.532;13.348;2023-07-31T02:11:44;5.17;;;4.03;;
20861;SDS011;10591;52.532;13.348;2023-07-31T02:14:15;7.03;;;4.42;;
20861;SDS011;10591;52.532;13.348;2023-07-31T02:16:46;5.20;;;4.35;;
20861;SDS011;10591;52.532;13.348;2023-07-31T02:19:17;5.75;;;4.35;;
20861;SDS011;10591;52.532;13.348;2023-07-31T02:21:48;7.35;;;4.97;;
20861;SDS011;10591;52.532;13.348;2023-07-31T02:24:19;7.67;;;4.40;;
20861;SDS011;10591;52.532;13.348;2023-07-31T02:26:50;5.97;;;4.50;;
20861;SDS011;10591;52.532;13.348;2023-07-31T02:29:21;5.33;;;4.65;;
20861;SDS011;10591;52.532;13.348;2023-07-31T02:31:51;5.58;;;4.33;;
20861;SDS011;10591;52.532;13.348;2023-07-31T02:34:22;6.47;;;4.65;;
20861;SDS011;10591;52.532;13.348;2023-07-31T02:36:52;5.25;;;4.25;;
20861;SDS011;10591;52.532;13.348;2023-07-31T02:39:24;6.53;;;5.03;;
20861;SDS011;10591;52.532;13.348;2023-07-31T02:41:55;6.05;;;4.40;;
20861;SDS011;10591;52.532;13.348;2023-07-31T02:44:26;6.47;;;4.47;;
20861;SDS011;10591;52.532;13.348;2023-07-31T02:46:56;7.12;;;5.03;;
20861;SDS011;10591;52.532;13.348;2023-07-31T02:49:27;6.65;;;5.37;;
20861;SDS011;10591;52.532;13.348;2023-07-31T02:51:57;7.47;;;4.95;;
20861;SDS011;10591;52.532;13.348;2023-07-31T02:54:28;7.55;;;4.92;;
20861;SDS011;10591;52.532;13.348;2023-07-31T02:56:58;5.83;;;4.40;;
20861;SDS011;10591;52.532;13.348;2023-07-31T02:59:29;7.12;;;4.92;;
20861;SDS011;10591;52.532;13.348;2023-07-31T03:01:59;7.62;;;5.22;;
20861;SDS011;10591;52.532;13.348;2023-07-31T03:04:30;6.37;;;4.47;;
20861;SDS011;10591;52.532;13.348;2023-07-31T03:07:01;7.45;;;5.33;;
20861;SDS011;10591;52.532;13.348;2023-07-31T03:09:31;8.70;;;5.45;;
20861;SDS011;10591;52.532;13.348;2023-07-31T03:12:02;7.03;;;5.25;;
20861;SDS011;10591;52.532;13.348;2023-07-31T03:14:33;6.55;;;4.87;;
20861;SDS011;10591;52.532;13.348;2023-07-31T03:17:03;9.05;;;5.95;;
20861;SDS011;10591;52.532;13.348;2023-07-31T03:19:34;6.90;;;5.12;;
20861;SDS011;10591;52.532;13.348;2023-07-31T03:22:05;8.75;;;5.85;;
20861;SDS011;10591;52.532;13.348;2023-07-31T03:24:36;7.97;;;5.37;;
20861;SDS011;10591;52.532;13.348;2023-07-31T03:27:08;7.85;;;5.20;;
20861;SDS011;10591;52.532;13.348;2023-07-31T03:29:38;9.85;;;6.20;;
20861;SDS011;10591;52.532;13.348;2023-07-31T03:32:09;6.85;;;5.62;;
20861;SDS011;10591;52.532;13.348;2023-07-31T03:34:40;7.03;;;5.55;;
20861;SDS011;10591;52.532;13.348;2023-07-31T03:37:10;7.60;;;5.58;;
20861;SDS011;10591;52.532;13.348;2023-07-31T03:39:41;6.03;;;5.28;;
20861;SDS011;10591;52.532;13.348;2023-07-31T03:42:12;10.15;;;5.62;;
20861;SDS011;10591;52.532;13.348;2023-07-31T03:44:42;5.72;;;5.17;;
20861;SDS011;10591;52.532;13.348;2023-07-31T03:47:13;8.40;;;5.75;;
20861;SDS011;10591;52.532;13.348;2023-07-31T03:49:44;7.67;;;5.85;;
20861;SDS011;10591;52.532;13.348;2023-07-31T03:52:14;9.15;;;5.78;;
20861;SDS011;10591;52.532;13.348;2023-07-31T03:54:45;8.20;;;6.05;;
20861;SDS011;10591;52.532;13.348;2023-07-31T03:57:18;6.62;;;5.97;;
20861;SDS011;10591;52.532;13.348;2023-07-31T03:59:48;8.75;;;6.22;;
20861;SDS011;10591;52.532;13.348;2023-07-31T04:02:19;6.87;;;6.05;;
20861;SDS011;10591;52.532;13.348;2023-07-31T04:04:51;9.55;;;6.67;;
20861;SDS011;10591;52.532;13.348;2023-07-31T04:07:21;7.08;;;5.58;;
20861;SDS011;10591;52.532;13.348;2023-07-31T04:09:52;7.30;;;6.30;;
20861;SDS011;10591;52.532;13.348;2023-07-31T04:12:23;7.03;;;6.20;;
20861;SDS011;10591;52.532;13.348;2023-07-31T04:14:54;10.20;;;6.22;;
20861;SDS011;10591;52.532;13.348;2023-07-31T04:17:25;7.35;;;6.17;;
20861;SDS011;10591;52.532;13.348;2023-07-31T04:19:56;7.80;;;5.65;;
20861;SDS011;10591;52.532;13.348;2023-07-31T04:22:27;8.50;;;6.42;;
20861;SDS011;10591;52.532;13.348;2023-07-31T04:24:59;8.43;;;5.55;;
20861;SDS011;10591;52.532;13.348;2023-07-31T04:27:30;8.28;;;6.45;;
20861;SDS011;10591;52.532;13.348;2023-07-31T04:30:00;7.92;;;5.65;;
20861;SDS011;10591;52.532;13.348;2023-07-31T04:32:32;7.25;;;5.42;;
20861;SDS011;10591;52.532;13.348;2023-07-31T04:35:04;7.00;;;5.30;;
20861;SDS011;10591;52.532;13.348;2023-07-31T04:37:36;7.10;;;5.83;;
20861;SDS011;10591;52.532;13.348;2023-07-31T04:40:08;9.33;;;5.58;;
20861;SDS011;10591;52.532;13.348;2023-07-31T04:42:39;8.83;;;5.05;;
20861;SDS011;10591;52.532;13.348;2023-07-31T04:45:09;7.15;;;5.30;;
20861;SDS011;10591;52.532;13.348;2023-07-31T04:47:40;6.50;;;5.08;;
20861;SDS011;10591;52.532;13.348;2023-07-31T04:50:11;6.97;;;4.97;;
20861;SDS011;10591;52.532;13.348;2023-07-31T04:52:41;9.03;;;5.58;;
20861;SDS011;10591;52.532;13.348;2023-07-31T04:55:12;7.83;;;5.15;;
20861;SDS011;10591;52.532;13.348;2023-07-31T04:57:42;8.95;;;5.20;;
20861;SDS011;10591;52.532;13.348;2023-07-31T05:00:14;7.28;;;5.42;;
20861;SDS011;10591;52.532;13.348;2023-07-31T05:02:44;7.80;;;5.08;;
20861;SDS011;10591;52.532;13.348;2023-07-31T05:05:15;6.08;;;5.10;;
20861;SDS011;10591;52.532;13.348;2023-07-31T05:07:46;10.90;;;5.25;;
20861;SDS011;10591;52.532;13.348;2023-07-31T05:10:17;7.65;;;5.65;;
20861;SDS011;10591;52.532;13.348;2023-07-31T05:12:47;7.20;;;5.33;;
20861;SDS011;10591;52.532;13.348;2023-07-31T05:15:18;9.50;;;5.65;;
20861;SDS011;10591;52.532;13.348;2023-07-31T05:17:49;8.73;;;5.35;;
20861;SDS011;10591;52.532;13.348;2023-07-31T05:20:23;9.93;;;5.97;;
20861;SDS011;10591;52.532;13.348;2023-07-31T05:22:57;7.58;;;4.92;;
20861;SDS011;10591;52.532;13.348;2023-07-31T05:25:28;11.70;;;5.95;;
20861;SDS011;10591;52.532;13.348;2023-07-31T05:27:59;7.60;;;5.60;;
20861;SDS011;10591;52.532;13.348;2023-07-31T05:30:30;8.18;;;5.72;;
20861;SDS011;10591;52.532;13.348;2023-07-31T05:33:01;8.73;;;5.30;;
20861;SDS011;10591;52.532;13.348;2023-07-31T05:35:31;10.20;;;5.60;;
20861;SDS011;10591;52.532;13.348;2023-07-31T05:38:02;6.53;;;5.22;;
20861;SDS011;10591;52.532;13.348;2023-07-31T05:40:33;8.68;;;5.17;;
20861;SDS011;10591;52.532;13.348;2023-07-31T05:43:04;9.33;;;5.90;;
20861;SDS011;10591;52.532;13.348;2023-07-31T05:45:36;9.30;;;5.67;;
20861;SDS011;10591;52.532;13.348;2023-07-31T05:48:07;11.65;;;6.45;;
20861;SDS011;10591;52.532;13.348;2023-07-31T05:50:38;7.15;;;5.17;;
20861;SDS011;10591;52.532;13.348;2023-07-31T05:53:09;8.03;;;5.12;;
20861;SDS011;10591;52.532;13.348;2023-07-31T05:55:40;8.53;;;4.78;;
20861;SDS011;10591;52.532;13.348;2023-07-31T05:58:10;7.45;;;4.83;;
20861;SDS011;10591;52.532;13.348;2023-07-31T06:00:41;9.63;;;5.28;;
20861;SDS011;10591;52.532;13.348;2023-07-31T06:03:11;10.15;;;6.42;;
20861;SDS011;10591;52.532;13.348;2023-07-31T06:05:44;9.35;;;5.37;;
20861;SDS011;10591;52.532;13.348;2023-07-31T06:08:25;13.18;;;5.83;;
20861;SDS011;10591;52.532;13.348;2023-07-31T06:10:55;8.25;;;4.90;;
20861;SDS011;10591;52.532;13.348;2023-07-31T06:13:26;7.25;;;5.50;;
20861;SDS011;10591;52.532;13.348;2023-07-31T06:15:57;7.33;;;5.05;;
20861;SDS011;10591;52.532;13.348;2023-07-31T06:18:28;9.30;;;5.53;;
20861;SDS011;10591;52.532;13.348;2023-07-31T06:20:59;10.78;;;5.20;;
20861;SDS011;10591;52.532;13.348;2023-07-31T06:23:29;10.60;;;5.75;;
20861;SDS011;10591;52.532;13.348;2023-07-31T06:26:00;9.90;;;5.83;;
20861;SDS011;10591;52.532;13.348;2023-07-31T06:28:31;5.83;;;5.10;;
20861;SDS011;10591;52.532;13.348;2023-07-31T06:31:02;7.62;;;4.85;;
20861;SDS011;10591;52.532;13.348;2023-07-31T06:33:32;9.58;;;5.60;;
20861;SDS011;10591;52.532;13.348;2023-07-31T06:36:03;7.80;;;4.80;;
20861;SDS011;10591;52.532;13.348;2023-07-31T06:38:34;7.85;;;4.87;;
20861;SDS011;10591;52.532;13.348;2023-07-31T06:41:07;9.83;;;5.35;;
20861;SDS011;10591;52.532;13.348;2023-07-31T06:43:39;7.53;;;5.50;;
20861;SDS011;10591;52.532;13.348;2023-07-31T06:46:10;7.87;;;4.15;;
20861;SDS011;10591;52.532;13.348;2023-07-31T06:48:40;7.92;;;4.45;;
20861;SDS011;10591;52.532;13.348;2023-07-31T06:51:13;8.15;;;4.75;;
20861;SDS011;10591;52.532;13.348;2023-07-31T06:53:49;9.33;;;5.12;;
20861;SDS011;10591;52.532;13.348;2023-07-31T06:56:21;6.40;;;4.12;;
20861;SDS011;10591;52.532;13.348;2023-07-31T06:58:51;7.92;;;4.67;;
20861;SDS011;10591;52.532;13.348;2023-07-31T07:01:25;9.53;;;5.33;;
20861;SDS011;10591;52.532;13.348;2023-07-31T07:03:56;5.92;;;4.33;;
20861;SDS011;10591;52.532;13.348;2023-07-31T07:06:27;7.25;;;4.62;;
20861;SDS011;10591;52.532;13.348;2023-07-31T07:08:58;8.73;;;5.25;;
20861;SDS011;10591;52.532;13.348;2023-07-31T07:11:30;8.15;;;4.62;;
20861;SDS011;10591;52.532;13.348;2023-07-31T07:14:01;8.55;;;4.67;;
20861;SDS011;10591;52.532;13.348;2023-07-31T07:16:34;9.20;;;4.75;;
20861;SDS011;10591;52.532;13.348;2023-07-31T07:19:06;10.38;;;5.05;;
20861;SDS011;10591;52.532;13.348;2023-07-31T07:21:37;10.50;;;5.37;;
20861;SDS011;10591;52.532;13.348;2023-07-31T07:24:10;7.30;;;4.50;;
20861;SDS011;10591;52.532;13.348;2023-07-31T07:26:42;7.75;;;5.08;;
20861;SDS011;10591;52.532;13.348;2023-07-31T07:29:13;10.53;;;5.70;;
20861;SDS011;10591;52.532;13.348;2023-07-31T07:31:43;7.17;;;5.28;;
20861;SDS011;10591;52.532;13.348;2023-07-31T07:34:14;10.58;;;5.28;;
20861;SDS011;10591;52.532;13.348;2023-07-31T07:36:44;8.88;;;5.12;;
20861;SDS011;10591;52.532;13.348;2023-07-31T07:39:16;5.92;;;4.42;;
20861;SDS011;10591;52.532;13.348;2023-07-31T07:41:47;7.00;;;4.87;;
20861;SDS011;10591;52.532;13.348;2023-07-31T07:44:17;6.37;;;4.60;;
20861;SDS011;10591;52.532;13.348;2023-07-31T07:46:48;6.92;;;4.00;;
20861;SDS011;10591;52.532;13.348;2023-07-31T07:49:19;6.58;;;4.22;;
20861;SDS011;10591;52.532;13.348;2023-07-31T07:51:51;7.50;;;4.70;;
20861;SDS011;10591;52.532;13.348;2023-07-31T07:54:22;8.75;;;5.00;;
20861;SDS011;10591;52.532;13.348;2023-07-31T07:56:53;8.30;;;4.75;;
20861;SDS011;10591;52.532;13.348;2023-07-31T07:59:24;9.45;;;5.42;;
20861;SDS011;10591;52.532;13.348;2023-07-31T08:01:55;7.75;;;4.47;;
20861;SDS011;10591;52.532;13.348;2023-07-31T08:04:26;6.70;;;4.45;;
20861;SDS011;10591;52.532;13.348;2023-07-31T08:06:57;6.90;;;4.67;;
20861;SDS011;10591;52.532;13.348;2023-07-31T08:09:27;9.80;;;5.05;;
20861;SDS011;10591;52.532;13.348;2023-07-31T08:11:58;5.65;;;4.10;;
20861;SDS011;10591;52.532;13.348;2023-07-31T08:14:30;5.70;;;4.47;;
20861;SDS011;10591;52.532;13.348;2023-07-31T08:17:01;7.05;;;4.67;;
20861;SDS011;10591;52.532;13.348;2023-07-31T08:19:32;5.35;;;4.37;;
20861;SDS011;10591;52.532;13.348;2023-07-31T08:22:03;8.10;;;4.45;;
20861;SDS011;10591;52.532;13.348;2023-07-31T08:24:34;8.80;;;4.75;;
20861;SDS011;10591;52.532;13.348;2023-07-31T08:27:05;6.50;;;4.15;;
20861;SDS011;10591;52.532;13.348;2023-07-31T08:29:36;6.12;;;4.05;;
20861;SDS011;10591;52.532;13.348;2023-07-31T08:32:07;5.25;;;4.00;;
20861;SDS011;10591;52.532;13.348;2023-07-31T08:34:38;7.83;;;4.55;;
20861;SDS011;10591;52.532;13.348;2023-07-31T08:37:10;5.58;;;4.10;;
20861;SDS011;10591;52.532;13.348;2023-07-31T08:39:41;6.78;;;4.50;;
20861;SDS011;10591;52.532;13.348;2023-07-31T08:42:12;8.28;;;4.53;;
20861;SDS011;10591;52.532;13.348;2023-07-31T08:44:43;6.65;;;4.55;;
20861;SDS011;10591;52.532;13.348;2023-07-31T08:47:14;4.83;;;3.62;;
20861;SDS011;10591;52.532;13.348;2023-07-31T08:49:46;7.42;;;4.42;;
20861;SDS011;10591;52.532;13.348;2023-07-31T08:52:17;5.83;;;4.35;;
20861;SDS011;10591;52.532;13.348;2023-07-31T08:54:48;6.72;;;4.40;;
20861;SDS011;10591;52.532;13.348;2023-07-31T08:57:19;6.87;;;4.22;;
20861;SDS011;10591;52.532;13.348;2023-07-31T08:59:52;8.15;;;4.50;;
20861;SDS011;10591;52.532;13.348;2023-07-31T09:02:24;5.80;;;4.10;;
20861;SDS011;10591;52.532;13.348;2023-07-31T09:04:59;7.20;;;4.92;;
20861;SDS011;10591;52.532;13.348;2023-07-31T09:07:30;6.35;;;4.90;;
20861;SDS011;10591;52.532;13.348;2023-07-31T09:10:04;5.33;;;3.67;;
20861;SDS011;10591;52.532;13.348;2023-07-31T09:12:35;6.45;;;4.22;;
20861;SDS011;10591;52.532;13.348;2023-07-31T09:15:07;5.30;;;4.20;;
20861;SDS011;10591;52.532;13.348;2023-07-31T09:17:40;5.92;;;4.00;;
20861;SDS011;10591;52.532;13.348;2023-07-31T09:20:15;5.78;;;4.10;;
20861;SDS011;10591;52.532;13.348;2023-07-31T09:22:49;5.67;;;3.95;;
20861;SDS011;10591;52.532;13.348;2023-07-31T09:25:22;7.45;;;4.58;;
20861;SDS011;10591;52.532;13.348;2023-07-31T09:28:01;6.40;;;3.65;;
20861;SDS011;10591;52.532;13.348;2023-07-31T09:31:08;7.22;;;4.58;;
20861;SDS011;10591;52.532;13.348;2023-07-31T09:33:17;5.65;;;4.05;;
20861;SDS011;10591;52.532;13.348;2023-07-31T09:35:49;5.15;;;3.55;;
20861;SDS011;10591;52.532;13.348;2023-07-31T09:38:20;4.67;;;3.65;;
20861;SDS011;10591;52.532;13.348;2023-07-31T09:40:51;5.35;;;3.45;;
20861;SDS011;10591;52.532;13.348;2023-07-31T09:43:22;5.47;;;3.83;;
20861;SDS011;10591;52.532;13.348;2023-07-31T09:45:56;5.08;;;3.65;;
20861;SDS011;10591;52.532;13.348;2023-07-31T09:48:28;4.83;;;3.55;;
20861;SDS011;10591;52.532;13.348;2023-07-31T09:50:59;6.12;;;3.98;;
20861;SDS011;10591;52.532;13.348;2023-07-31T09:53:33;6.25;;;4.03;;
20861;SDS011;10591;52.532;13.348;2023-07-31T09:56:04;4.03;;;2.98;;
20861;SDS011;10591;52.532;13.348;2023-07-31T09:58:35;6.80;;;3.77;;
20861;SDS011;10591;52.532;13.348;2023-07-31T10:01:05;5.22;;;3.40;;
20861;SDS011;10591;52.532;13.348;2023-07-31T10:03:37;5.87;;;3.62;;
20861;SDS011;10591;52.532;13.348;2023-07-31T10:06:09;5.85;;;3.27;;
20861;SDS011;10591;52.532;13.348;2023-07-31T10:08:40;4.90;;;3.22;;
20861;SDS011;10591;52.532;13.348;2023-07-31T10:11:13;6.53;;;4.12;;
20861;SDS011;10591;52.532;13.348;2023-07-31T10:13:45;5.92;;;3.70;;
20861;SDS011;10591;52.532;13.348;2023-07-31T10:16:16;5.87;;;3.50;;
20861;SDS011;10591;52.532;13.348;2023-07-31T10:18:48;4.47;;;3.92;;
20861;SDS011;10591;52.532;13.348;2023-07-31T10:21:23;5.22;;;4.40;;
20861;SDS011;10591;52.532;13.348;2023-07-31T10:23:54;6.90;;;4.58;;
20861;SDS011;10591;52.532;13.348;2023-07-31T10:26:26;4.78;;;4.28;;
20861;SDS011;10591;52.532;13.348;2023-07-31T10:28:57;6.12;;;4.20;;
20861;SDS011;10591;52.532;13.348;2023-07-31T10:31:30;8.73;;;4.80;;
20861;SDS011;10591;52.532;13.348;2023-07-31T10:34:03;6.67;;;5.42;;
20861;SDS011;10591;52.532;13.348;2023-07-31T10:36:34;7.92;;;5.33;;
20861;SDS011;10591;52.532;13.348;2023-07-31T10:39:05;8.45;;;5.55;;
20861;SDS011;10591;52.532;13.348;2023-07-31T10:41:38;8.15;;;5.20;;
20861;SDS011;10591;52.532;13.348;2023-07-31T10:44:10;9.28;;;6.05;;
20861;SDS011;10591;52.532;13.348;2023-07-31T10:46:44;8.30;;;5.72;;
20861;SDS011;10591;52.532;13.348;2023-07-31T10:49:20;9.90;;;5.87;;
20861;SDS011;10591;52.532;13.348;2023-07-31T10:51:49;7.17;;;5.08;;
20861;SDS011;10591;52.532;13.348;2023-07-31T10:54:20;7.25;;;5.20;;
20861;SDS011;10591;52.532;13.348;2023-07-31T10:56:51;8.18;;;5.08;;
20861;SDS011;10591;52.532;13.348;2023-07-31T10:59:26;8.08;;;5.00;;
20861;SDS011;10591;52.532;13.348;2023-07-31T11:01:58;12.15;;;6.12;;
20861;SDS011;10591;52.532;13.348;2023-07-31T11:04:31;7.20;;;5.47;;
20861;SDS011;10591;52.532;13.348;2023-07-31T11:07:02;8.65;;;5.25;;
20861;SDS011;10591;52.532;13.348;2023-07-31T11:09:35;7.05;;;5.15;;
20861;SDS011;10591;52.532;13.348;2023-07-31T11:12:06;8.63;;;5.00;;
20861;SDS011;10591;52.532;13.348;2023-07-31T11:14:38;7.33;;;4.97;;
20861;SDS011;10591;52.532;13.348;2023-07-31T11:17:08;7.53;;;5.05;;
20861;SDS011;10591;52.532;13.348;2023-07-31T11:19:39;8.45;;;5.50;;
20861;SDS011;10591;52.532;13.348;2023-07-31T11:22:10;8.15;;;5.00;;
20861;SDS011;10591;52.532;13.348;2023-07-31T11:24:41;8.90;;;5.37;;
20861;SDS011;10591;52.532;13.348;2023-07-31T11:27:13;7.22;;;4.72;;
20861;SDS011;10591;52.532;13.348;2023-07-31T11:29:44;7.95;;;5.15;;
20861;SDS011;10591;52.532;13.348;2023-07-31T11:32:17;7.00;;;5.08;;
20861;SDS011;10591;52.532;13.348;2023-07-31T11:34:57;9.78;;;5.55;;
20861;SDS011;10591;52.532;13.348;2023-07-31T11:37:24;8.50;;;5.28;;
20861;SDS011;10591;52.532;13.348;2023-07-31T11:40:02;7.22;;;5.40;;
20861;SDS011;10591;52.532;13.348;2023-07-31T11:42:37;7.33;;;5.28;;
20861;SDS011;10591;52.532;13.348;2023-07-31T11:45:09;8.20;;;5.42;;
20861;SDS011;10591;52.532;13.348;2023-07-31T11:47:40;8.80;;;5.12;;
20861;SDS011;10591;52.532;13.348;2023-07-31T11:50:11;9.60;;;5.55;;
20861;SDS011;10591;52.532;13.348;2023-07-31T11:52:42;10.85;;;6.20;;
20861;SDS011;10591;52.532;13.348;2023-07-31T11:55:15;7.62;;;5.10;;
20861;SDS011;10591;52.532;13.348;2023-07-31T11:57:47;8.28;;;5.17;;
20861;SDS011;10591;52.532;13.348;2023-07-31T12:00:22;5.97;;;4.97;;
20861;SDS011;10591;52.532;13.348;2023-07-31T12:02:52;9.05;;;5.55;;
20861;SDS011;10591;52.532;13.348;2023-07-31T12:05:23;6.55;;;4.72;;
20861;SDS011;10591;52.532;13.348;2023-07-31T12:07:55;9.23;;;5.42;;
20861;SDS011;10591;52.532;13.348;2023-07-31T12:10:30;6.10;;;4.60;;
20861;SDS011;10591;52.532;13.348;2023-07-31T12:13:03;8.85;;;4.97;;
20861;SDS011;10591;52.532;13.348;2023-07-31T12:15:41;8.18;;;5.22;;
20861;SDS011;10591;52.532;13.348;2023-07-31T12:18:13;7.45;;;4.80;;
20861;SDS011;10591;52.532;13.348;2023-07-31T12:20:47;8.25;;;5.25;;
20861;SDS011;10591;52.532;13.348;2023-07-31T12:23:23;6.78;;;5.10;;
20861;SDS011;10591;52.532;13.348;2023-07-31T12:26:08;5.83;;;4.42;;
20861;SDS011;10591;52.532;13.348;2023-07-31T12:28:42;8.95;;;5.12;;
20861;SDS011;10591;52.532;13.348;2023-07-31T12:31:17;6.67;;;4.62;;
20861;SDS011;10591;52.532;13.348;2023-07-31T12:33:51;9.35;;;5.08;;
20861;SDS011;10591;52.532;13.348;2023-07-31T12:36:23;6.85;;;4.35;;
20861;SDS011;10591;52.532;13.348;2023-07-31T12:38:55;5.80;;;4.50;;
20861;SDS011;10591;52.532;13.348;2023-07-31T12:41:28;6.90;;;4.60;;
20861;SDS011;10591;52.532;13.348;2023-07-31T12:43:59;6.87;;;4.40;;
20861;SDS011;10591;52.532;13.348;2023-07-31T12:46:29;6.28;;;4.53;;
20861;SDS011;10591;52.532;13.348;2023-07-31T12:49:00;18.02;;;6.10;;
20861;SDS011;10591;52.532;13.348;2023-07-31T12:51:32;8.80;;;4.55;;
20861;SDS011;10591;52.532;13.348;2023-07-31T12:54:05;15.40;;;5.05;;
20861;SDS011;10591;52.532;13.348;2023-07-31T12:56:36;7.12;;;4.20;;
20861;SDS011;10591;52.532;13.348;2023-07-31T12:59:07;11.43;;;5.65;;
20861;SDS011;10591;52.532;13.348;2023-07-31T13:01:38;10.45;;;4.47;;
20861;SDS011;10591;52.532;13.348;2023-07-31T13:04:09;7.85;;;4.45;;
20861;SDS011;10591;52.532;13.348;2023-07-31T13:06:39;6.80;;;3.70;;
20861;SDS011;10591;52.532;13.348;2023-07-31T13:09:11;12.05;;;5.03;;
20861;SDS011;10591;52.532;13.348;2023-07-31T13:11:42;11.75;;;4.95;;
20861;SDS011;10591;52.532;13.348;2023-07-31T13:14:15;7.17;;;4.03;;
20861;SDS011;10591;52.532;13.348;2023-07-31T13:16:47;7.28;;;3.83;;
20861;SDS011;10591;52.532;13.348;2023-07-31T13:19:18;6.30;;;4.12;;
20861;SDS011;10591;52.532;13.348;2023-07-31T13:21:49;4.90;;;3.95;;
20861;SDS011;10591;52.532;13.348;2023-07-31T13:24:19;4.17;;;3.60;;
20861;SDS011;10591;52.532;13.348;2023-07-31T13:26:50;8.20;;;3.95;;
20861;SDS011;10591;52.532;13.348;2023-07-31T13:29:21;5.15;;;3.42;;
20861;SDS011;10591;52.532;13.348;2023-07-31T13:31:52;6.87;;;3.83;;
20861;SDS011;10591;52.532;13.348;2023-07-31T13:34:25;4.12;;;3.50;;
20861;SDS011;10591;52.532;13.348;2023-07-31T13:36:55;4.70;;;3.90;;
20861;SDS011;10591;52.532;13.348;2023-07-31T13:39:26;7.78;;;4.25;;
20861;SDS011;10591;52.532;13.348;2023-07-31T13:41:58;7.15;;;4.45;;
20861;SDS011;10591;52.532;13.348;2023-07-31T13:44:29;6.25;;;4.20;;
20861;SDS011;10591;52.532;13.348;2023-07-31T13:46:59;5.33;;;4.12;;
20861;SDS011;10591;52.532;13.348;2023-07-31T13:49:31;7.33;;;4.60;;
20861;SDS011;10591;52.532;13.348;2023-07-31T13:52:03;5.33;;;3.98;;
20861;SDS011;10591;52.532;13.348;2023-07-31T13:54:34;7.20;;;4.58;;
20861;SDS011;10591;52.532;13.348;2023-07-31T13:57:05;5.05;;;4.05;;
20861;SDS011;10591;52.532;13.348;2023-07-31T13:59:37;5.87;;;4.30;;
20861;SDS011;10591;52.532;13.348;2023-07-31T14:02:08;7.85;;;4.47;;
20861;SDS011;10591;52.532;13.348;2023-07-31T14:04:38;5.35;;;4.30;;
20861;SDS011;10591;52.532;13.348;2023-07-31T14:07:10;6.12;;;4.67;;
20861;SDS011;10591;52.532;13.348;2023-07-31T14:09:40;7.70;;;5.17;;
20861;SDS011;10591;52.532;13.348;2023-07-31T14:12:11;6.17;;;4.72;;
20861;SDS011;10591;52.532;13.348;2023-07-31T14:14:43;6.30;;;4.08;;
20861;SDS011;10591;52.532;13.348;2023-07-31T14:17:14;9.78;;;5.55;;
20861;SDS011;10591;52.532;13.348;2023-07-31T14:19:46;7.20;;;4.87;;
20861;SDS011;10591;52.532;13.348;2023-07-31T14:22:27;5.20;;;4.35;;
20861;SDS011;10591;52.532;13.348;2023-07-31T14:24:59;5.50;;;4.62;;
20861;SDS011;10591;52.532;13.348;2023-07-31T14:27:29;6.40;;;4.60;;
20861;SDS011;10591;52.532;13.348;2023-07-31T14:30:00;7.20;;;4.67;;
20861;SDS011;10591;52.532;13.348;2023-07-31T14:32:31;6.65;;;4.53;;
20861;SDS011;10591;52.532;13.348;2023-07-31T14:35:03;6.97;;;5.08;;
20861;SDS011;10591;52.532;13.348;2023-07-31T14:37:43;5.37;;;4.70;;
20861;SDS011;10591;52.532;13.348;2023-07-31T14:40:10;7.42;;;5.00;;
20861;SDS011;10591;52.532;13.348;2023-07-31T14:42:42;7.50;;;4.92;;
20861;SDS011;10591;52.532;13.348;2023-07-31T14:45:13;6.42;;;4.67;;
20861;SDS011;10591;52.532;13.348;2023-07-31T14:47:43;6.15;;;4.30;;
20861;SDS011;10591;52.532;13.348;2023-07-31T14:50:14;7.22;;;4.95;;
20861;SDS011;10591;52.532;13.348;2023-07-31T14:52:47;7.42;;;4.55;;
20861;SDS011;10591;52.532;13.348;2023-07-31T14:55:18;6.45;;;4.33;;
20861;SDS011;10591;52.532;13.348;2023-07-31T14:57:50;6.92;;;4.53;;
20861;SDS011;10591;52.532;13.348;2023-07-31T15:00:21;6.55;;;5.10;;
20861;SDS011;10591;52.532;13.348;2023-07-31T15:02:53;7.15;;;4.72;;
20861;SDS011;10591;52.532;13.348;2023-07-31T15:05:23;6.42;;;4.40;;
20861;SDS011;10591;52.532;13.348;2023-07-31T15:07:55;6.50;;;4.55;;